Time;durP1;ratioP1;P1;durP2;ratioP2;P2;SDS_P1;SDS_P2;PMS_P1;PMS_P2;Temp;Humidity;BMP_temperature;BMP_pressure;BME280_temperature;BME280_humidity;BME280_pressure;Samples;Min_cycle;Max_cycle;Signal;HPM_P1;HPM_P2
2021/12/26 00:00:19;;;;;;;25.55;14.02;;;;;;;3.91;87.36;94022.69;5053955;28;20447;-71
2021/12/26 00:02:45;;;;;;;28.15;13.95;;;;;;;4.02;86.11;94017.56;5053690;28;20033;-71
2021/12/26 00:05:12;;;;;;;28.25;13.45;;;;;;;4.01;86.80;94011.47;5052466;28;20496;-71
2021/12/26 00:07:37;;;;;;;27.40;14.88;;;;;;;4.12;87.21;94026.31;5053374;28;20036;-71
2021/12/26 00:10:05;;;;;;;28.35;14.60;;;;;;;3.84;88.04;94018.41;5053361;28;20377;-71
2021/12/26 00:12:31;;;;;;;30.20;15.13;;;;;;;4.00;87.37;94025.34;5053306;28;20127;-71
2021/12/26 00:14:57;;;;;;;31.58;17.02;;;;;;;3.94;88.39;94024.47;5053238;28;20386;-71
2021/12/26 00:17:22;;;;;;;39.05;17.08;;;;;;;3.81;88.52;94014.69;5053175;28;20037;-71
2021/12/26 00:19:48;;;;;;;31.05;16.45;;;;;;;4.01;87.82;94016.09;5053111;28;20112;-71
2021/12/26 00:22:14;;;;;;;29.40;16.63;;;;;;;4.12;86.89;94016.34;5053152;28;20040;-71
2021/12/26 00:24:39;;;;;;;33.20;15.88;;;;;;;4.27;85.90;94023.69;5053154;28;20100;-71
2021/12/26 00:27:05;;;;;;;35.10;18.30;;;;;;;4.15;85.97;94036.91;5053073;28;20036;-71
2021/12/26 00:29:30;;;;;;;29.40;15.85;;;;;;;4.11;86.81;94027.53;5053532;28;20013;-71
2021/12/26 00:31:56;;;;;;;26.45;14.80;;;;;;;4.02;87.07;94007.59;5053253;28;20048;-71
2021/12/26 00:34:21;;;;;;;32.33;14.57;;;;;;;4.07;86.33;94006.22;5053429;28;20090;-71
2021/12/26 00:36:47;;;;;;;27.45;15.40;;;;;;;4.08;85.82;94015.75;5052957;28;20522;-71
2021/12/26 00:41:56;;;;;;;24.27;12.57;;;;;;;4.29;84.96;94018.63;5052940;28;20436;-71
2021/12/26 00:44:22;;;;;;;19.50;11.23;;;;;;;4.28;85.02;94012.53;5052212;28;20025;-71
2021/12/26 00:46:49;;;;;;;25.48;11.15;;;;;;;4.54;84.16;94020.84;5053074;28;20416;-71
2021/12/26 00:49:15;;;;;;;25.42;11.40;;;;;;;4.59;83.18;94026.78;5052832;28;20025;-71
2021/12/26 00:51:40;;;;;;;29.85;14.48;;;;;;;4.18;85.24;94022.56;5055317;28;20021;-71
2021/12/26 00:54:06;;;;;;;28.60;13.65;;;;;;;4.22;85.38;94025.09;5059852;28;20021;-71
2021/12/26 00:56:31;;;;;;;24.60;13.82;;;;;;;4.17;85.24;94039.13;5053041;28;20028;-71
2021/12/26 00:58:57;;;;;;;31.00;13.82;;;;;;;3.97;84.91;94029.69;5052662;28;20469;-71
2021/12/26 01:01:22;;;;;;;24.38;13.15;;;;;;;3.96;85.82;94025.50;5052652;28;20442;-71
2021/12/26 01:03:48;;;;;;;25.45;13.35;;;;;;;3.77;87.71;94018.72;5053227;28;20032;-71
2021/12/26 01:06:13;;;;;;;29.55;14.45;;;;;;;4.01;86.48;94032.22;5052891;28;20031;-71
2021/12/26 01:08:42;;;;;;;25.27;11.25;;;;;;;3.50;87.97;94013.00;5052489;28;20100;-71
2021/12/26 01:11:21;;;;;;;16.15;8.65;;;;;;;3.48;89.75;94020.03;5053034;28;20362;-71
2021/12/26 01:13:49;;;;;;;23.42;10.70;;;;;;;3.85;88.70;94026.00;5053061;28;20102;-71
2021/12/26 01:16:15;;;;;;;17.42;9.70;;;;;;;3.74;87.43;94009.66;5052437;28;20058;-71
2021/12/26 01:18:50;;;;;;;20.48;10.65;;;;;;;3.52;88.84;94010.63;5052246;28;20465;-71
2021/12/26 01:21:21;;;;;;;19.17;9.70;;;;;;;3.35;89.62;94012.91;5052988;28;20108;-71
2021/12/26 01:23:50;;;;;;;19.17;10.25;;;;;;;3.70;88.62;94001.00;5052687;28;20096;-71
2021/12/26 01:26:17;;;;;;;23.33;10.10;;;;;;;3.74;88.84;93998.91;5052379;28;20049;-71
2021/12/26 01:28:43;;;;;;;20.15;10.98;;;;;;;3.80;88.10;94013.19;5051362;28;20041;-71
2021/12/26 01:31:09;;;;;;;21.38;10.88;;;;;;;3.62;89.12;93999.84;5052869;28;20079;-71
2021/12/26 01:33:35;;;;;;;21.38;10.88;;;;;;;3.77;88.59;94003.38;5052546;28;20041;-71
2021/12/26 01:36:01;;;;;;;20.20;10.18;;;;;;;3.53;88.42;93993.31;5052280;28;20025;-71
2021/12/26 01:38:26;;;;;;;24.85;12.23;;;;;;;2.82;89.26;93995.28;5051224;28;20477;-71
2021/12/26 01:40:55;;;;;;;24.02;12.38;;;;;;;2.95;92.05;93975.59;5051330;28;20017;-71
2021/12/26 01:43:26;;;;;;;27.77;12.80;;;;;;;2.70;93.44;93993.50;5052300;28;20027;-71
2021/12/26 01:45:52;;;;;;;28.43;14.17;;;;;;;2.87;93.75;93994.66;5052618;28;20104;-71
2021/12/26 01:48:19;;;;;;;28.75;14.20;;;;;;;2.96;93.75;93982.41;5052514;28;20139;-71
2021/12/26 01:50:47;;;;;;;32.70;14.27;;;;;;;3.14;92.96;93984.34;5051618;28;20451;-71
2021/12/26 01:53:13;;;;;;;25.92;14.32;;;;;;;3.32;91.40;93983.56;5052234;28;20084;-71
2021/12/26 01:55:43;;;;;;;24.75;12.63;;;;;;;3.26;91.56;93977.28;5053534;28;20025;-71
2021/12/26 01:58:22;;;;;;;28.90;14.07;;;;;;;3.38;90.72;93979.81;5056409;28;20067;-72
2021/12/26 02:00:57;;;;;;;22.88;12.18;;;;;;;3.07;91.92;93980.03;5056331;28;20442;-71
2021/12/26 02:03:23;;;;;;;26.33;14.35;;;;;;;3.07;91.69;93979.28;5055815;28;20052;-71
2021/12/26 02:05:49;;;;;;;24.17;13.88;;;;;;;3.02;91.42;93981.38;5055953;28;20108;-71
2021/12/26 02:08:15;;;;;;;27.42;14.15;;;;;;;2.93;92.36;93986.00;5055924;28;20112;-71
2021/12/26 02:10:41;;;;;;;27.52;14.07;;;;;;;3.09;92.49;93985.69;5056097;28;20052;-71
2021/12/26 02:13:07;;;;;;;26.45;15.20;;;;;;;3.02;92.41;93969.91;5055561;28;20060;-71
2021/12/26 02:15:33;;;;;;;27.20;14.48;;;;;;;3.17;93.41;93980.75;5055477;28;20021;-71
2021/12/26 02:17:58;;;;;;;26.80;15.52;;;;;;;3.03;94.66;93960.69;5055248;28;20052;-71
2021/12/26 02:20:59;;;;;;;31.13;16.77;;;;;;;2.96;96.21;93958.28;5055303;28;20520;-71
2021/12/26 02:23:43;;;;;;;33.05;15.32;;;;;;;3.14;94.41;93973.63;5055342;28;20050;-72
2021/12/26 02:28:43;;;;;;;31.38;16.30;;;;;;;3.20;93.75;93975.25;5055426;28;20036;-70
2021/12/26 02:31:09;;;;;;;25.58;14.90;;;;;;;3.35;93.30;93974.59;5054084;28;20030;-69
2021/12/26 02:33:35;;;;;;;26.33;15.75;;;;;;;3.13;93.40;93975.53;5055330;28;20031;-70
2021/12/26 02:36:01;;;;;;;30.13;17.15;;;;;;;3.00;94.65;93978.41;5054960;28;20039;-70
2021/12/26 02:38:27;;;;;;;27.27;15.00;;;;;;;2.99;93.80;93973.50;5054975;28;20053;-70
2021/12/26 02:40:54;;;;;;;28.75;15.95;;;;;;;2.79;96.77;93969.34;5060151;28;20481;-69
2021/12/26 02:43:23;;;;;;;27.48;16.77;;;;;;;3.13;94.95;93980.91;5060011;28;20021;-70
2021/12/26 02:45:49;;;;;;;31.52;15.02;;;;;;;3.00;94.34;93969.59;5054928;28;20068;-70
2021/12/26 02:48:16;;;;;;;27.45;15.75;;;;;;;2.70;96.40;93972.06;5054756;28;20064;-70
2021/12/26 02:50:43;;;;;;;29.17;16.40;;;;;;;2.91;96.77;93972.31;5054724;28;20040;-70
2021/12/26 02:53:12;;;;;;;28.65;16.15;;;;;;;2.92;96.11;93971.13;5054691;28;20458;-70
2021/12/26 02:55:38;;;;;;;30.08;15.07;;;;;;;2.91;95.72;93969.66;5054863;28;20108;-70
2021/12/26 02:58:06;;;;;;;28.02;14.98;;;;;;;2.99;95.38;93970.81;5053499;28;20099;-70
2021/12/26 03:00:40;;;;;;;26.00;13.90;;;;;;;3.11;94.45;93972.59;5054551;28;20056;-69
2021/12/26 03:03:06;;;;;;;24.67;14.38;;;;;;;2.98;95.95;93977.38;5054925;28;20044;-70
2021/12/26 03:05:36;;;;;;;26.65;14.55;;;;;;;3.07;95.08;93972.00;5053413;28;20110;-70
2021/12/26 03:08:02;;;;;;;30.00;13.20;;;;;;;3.11;95.38;93966.47;5054261;28;20071;-71
2021/12/26 03:10:28;;;;;;;27.73;13.70;;;;;;;3.02;94.96;93965.28;5054624;28;20025;-70
2021/12/26 03:12:57;;;;;;;25.27;12.68;;;;;;;3.39;93.13;93959.09;5054591;28;20044;-71
2021/12/26 03:15:24;;;;;;;22.40;12.73;;;;;;;3.36;94.05;93960.00;5054307;28;20024;-70
2021/12/26 03:17:51;;;;;;;31.38;13.20;;;;;;;3.09;95.14;93958.88;5053120;28;20048;-70
2021/12/26 03:20:24;;;;;;;24.38;12.88;;;;;;;3.31;94.27;93971.31;5054416;28;20434;-69
2021/12/26 03:22:49;;;;;;;23.00;12.93;;;;;;;3.36;93.47;93954.63;5054441;28;20117;-70
2021/12/26 03:25:21;;;;;;;22.67;12.70;;;;;;;3.10;94.67;93962.31;5054357;28;20475;-70
2021/12/26 03:27:49;;;;;;;23.02;12.82;;;;;;;3.25;94.76;93959.75;5054290;28;20132;-70
2021/12/26 03:30:19;;;;;;;22.05;13.27;;;;;;;3.38;92.63;93954.91;5054141;28;20020;-70
2021/12/26 03:32:45;;;;;;;21.15;12.95;;;;;;;3.29;93.94;93958.38;5053728;28;20120;-70
2021/12/26 03:35:11;;;;;;;22.17;13.02;;;;;;;3.22;93.31;93970.16;5052875;28;20458;-70
2021/12/26 03:37:38;;;;;;;22.05;12.02;;;;;;;3.42;92.94;93952.81;5053882;28;20020;-70
2021/12/26 03:40:05;;;;;;;16.73;10.77;;;;;;;3.75;91.38;93970.88;5054245;28;20033;-70
2021/12/26 03:42:31;;;;;;;19.45;11.35;;;;;;;3.78;89.56;93971.91;5054289;28;20123;-70
2021/12/26 03:44:57;;;;;;;20.95;11.13;;;;;;;3.77;89.16;93973.09;5053642;28;20029;-70
2021/12/26 03:47:23;;;;;;;20.15;10.15;;;;;;;3.44;92.84;93977.25;5052681;28;20035;-70
2021/12/26 03:49:50;;;;;;;20.23;11.00;;;;;;;3.84;89.77;93975.44;5052665;28;20130;-70
2021/12/26 03:52:15;;;;;;;24.15;10.63;;;;;;;4.00;88.32;93987.75;5053629;28;20032;-70
2021/12/26 03:54:41;;;;;;;21.48;11.02;;;;;;;3.94;88.67;93976.13;5054090;28;20025;-70
2021/12/26 03:57:06;;;;;;;18.67;11.38;;;;;;;3.87;88.20;93998.69;5053611;28;20355;-71
2021/12/26 03:59:32;;;;;;;22.88;10.60;;;;;;;3.80;90.09;93997.06;5054032;28;20021;-71
2021/12/26 04:01:58;;;;;;;23.67;11.82;;;;;;;3.79;89.35;93978.75;5053998;28;20550;-71
2021/12/26 04:04:25;;;;;;;22.80;12.55;;;;;;;3.86;88.52;93992.59;5053722;28;20403;-71
2021/12/26 04:06:50;;;;;;;27.30;12.43;;;;;;;3.70;90.07;93988.31;5053391;28;20401;-71
2021/12/26 04:09:16;;;;;;;19.88;10.88;;;;;;;3.79;90.30;93989.47;5053351;28;20029;-71
2021/12/26 04:11:45;;;;;;;22.25;11.05;;;;;;;3.80;89.91;93990.97;5053256;28;20508;-71
2021/12/26 04:14:12;;;;;;;18.83;11.30;;;;;;;3.73;90.16;93992.03;5053255;28;20025;-71
2021/12/26 04:16:38;;;;;;;23.25;11.50;;;;;;;3.59;90.81;93995.41;5053048;28;20047;-71
2021/12/26 04:19:04;;;;;;;20.35;11.27;;;;;;;4.10;88.68;93989.16;5052341;28;20438;-71
2021/12/26 04:21:30;;;;;;;20.55;10.55;;;;;;;3.95;88.36;94001.78;5053605;28;20060;-71
2021/12/26 04:23:56;;;;;;;20.23;11.38;;;;;;;3.94;89.24;93994.94;5053100;28;20087;-71
2021/12/26 04:26:22;;;;;;;16.45;10.20;;;;;;;3.84;90.04;93992.28;5053305;28;20025;-71
2021/12/26 04:28:47;;;;;;;20.80;11.32;;;;;;;3.79;88.36;93994.84;5058014;28;20361;-71
2021/12/26 04:31:13;;;;;;;18.33;10.00;;;;;;;3.53;91.17;93979.91;5058897;28;20031;-71
2021/12/26 04:33:39;;;;;;;19.60;10.98;;;;;;;3.45;90.32;93988.72;5053074;28;20089;-71
2021/12/26 04:36:05;;;;;;;24.15;11.32;;;;;;;3.42;92.00;94000.38;5053190;28;20049;-71
2021/12/26 04:38:31;;;;;;;21.73;11.40;;;;;;;3.58;91.95;93997.31;5053226;28;20036;-71
2021/12/26 04:40:56;;;;;;;18.00;11.05;;;;;;;3.54;92.08;93992.13;5052848;28;20028;-71
2021/12/26 04:43:23;;;;;;;21.42;11.73;;;;;;;3.30;93.92;93994.75;5051773;28;20029;-71
2021/12/26 04:45:49;;;;;;;19.40;11.10;;;;;;;3.79;91.56;94011.72;5052787;28;20028;-71
2021/12/26 04:48:15;;;;;;;18.25;10.80;;;;;;;3.69;91.49;94007.56;5053209;28;20025;-71
2021/12/26 04:50:41;;;;;;;20.50;10.73;;;;;;;3.73;91.13;93997.41;5052912;28;20021;-70
2021/12/26 04:53:07;;;;;;;18.92;10.63;;;;;;;3.88;90.13;94013.59;5052689;28;20028;-71
2021/12/26 04:55:33;;;;;;;19.02;10.35;;;;;;;3.74;90.72;94009.66;5053115;28;20025;-71
2021/12/26 04:57:58;;;;;;;17.88;10.18;;;;;;;3.89;90.93;94015.84;5052581;28;20052;-71
2021/12/26 05:00:27;;;;;;;19.42;11.70;;;;;;;4.01;90.10;94005.34;5053027;28;20021;-71
2021/12/26 05:02:54;;;;;;;19.88;11.07;;;;;;;3.99;89.13;94011.16;5051564;28;20039;-71
2021/12/26 05:05:20;;;;;;;19.25;11.18;;;;;;;4.10;88.86;94017.97;5052595;28;20029;-71
2021/12/26 05:07:46;;;;;;;20.45;11.68;;;;;;;4.05;89.03;94014.00;5052569;28;20128;-71
2021/12/26 05:10:15;;;;;;;21.25;10.85;;;;;;;4.19;88.80;94024.03;5052461;28;20473;-71
2021/12/26 05:12:40;;;;;;;25.52;11.95;;;;;;;4.02;88.71;94012.97;5051513;28;20021;-71
2021/12/26 05:15:08;;;;;;;20.98;11.32;;;;;;;4.09;89.47;94019.94;5052764;28;20031;-71
2021/12/26 05:17:33;;;;;;;20.05;10.75;;;;;;;4.04;89.93;94021.28;5052461;28;20041;-71
2021/12/26 05:19:59;;;;;;;18.55;11.02;;;;;;;4.29;87.85;94024.72;5052918;28;20044;-71
2021/12/26 05:22:24;;;;;;;24.20;10.75;;;;;;;4.07;88.68;94027.69;5051542;28;20033;-71
2021/12/26 05:24:50;;;;;;;19.67;11.60;;;;;;;3.96;90.93;94019.41;5052492;28;20025;-71
2021/12/26 05:27:16;;;;;;;22.02;10.73;;;;;;;4.15;90.11;94044.97;5052515;28;20033;-71
2021/12/26 05:29:42;;;;;;;19.38;10.50;;;;;;;4.11;91.27;94001.41;5053295;28;20024;-71
2021/12/26 05:32:08;;;;;;;18.65;10.57;;;;;;;4.34;89.39;94023.38;5056777;28;20098;-70
2021/12/26 05:34:34;;;;;;;16.75;10.38;;;;;;;4.06;92.72;94029.66;5056105;28;20055;-70
2021/12/26 05:37:00;;;;;;;18.77;10.43;;;;;;;4.19;90.78;94026.72;5056067;28;20025;-69
2021/12/26 05:39:25;;;;;;;17.83;10.65;;;;;;;4.35;90.25;94027.53;5055179;28;20028;-69
2021/12/26 05:41:51;;;;;;;16.63;10.65;;;;;;;4.23;93.38;94027.31;5055974;28;20121;-69
2021/12/26 05:44:16;;;;;;;20.92;11.35;;;;;;;4.04;93.70;94028.59;5056249;28;20079;-69
2021/12/26 05:46:42;;;;;;;21.48;12.15;;;;;;;4.10;96.58;94031.41;5055946;28;20099;-69
2021/12/26 05:49:07;;;;;;;20.85;11.32;;;;;;;4.01;100.00;94024.16;5056169;28;20024;-69
2021/12/26 05:51:33;;;;;;;20.92;11.30;;;;;;;4.12;100.00;94016.34;5055839;28;20024;-69
2021/12/26 05:53:59;;;;;;;18.90;11.50;;;;;;;4.21;100.00;94018.97;5056349;28;20366;-69
2021/12/26 05:56:25;;;;;;;24.65;13.27;;;;;;;4.19;100.00;94010.63;5056191;28;20032;-70
2021/12/26 05:58:51;;;;;;;24.65;12.30;;;;;;;3.89;100.00;94012.41;5055978;28;20028;-69
2021/12/26 06:01:16;;;;;;;23.30;13.15;;;;;;;3.71;100.00;94005.19;5055894;28;20033;-70
2021/12/26 06:03:42;;;;;;;19.90;11.88;;;;;;;3.53;100.00;93961.13;5055974;28;20139;-70
2021/12/26 06:06:08;;;;;;;24.27;14.13;;;;;;;3.69;100.00;93981.47;5054607;28;20067;-70
2021/12/26 06:08:33;;;;;;;37.25;19.10;;;;;;;3.40;100.00;93951.78;5055884;28;20104;-70
2021/12/26 06:10:59;;;;;;;30.42;16.33;;;;;;;3.57;100.00;93976.31;5056039;28;20116;-70
2021/12/26 06:13:24;;;;;;;31.23;15.73;;;;;;;3.87;100.00;93974.53;5055460;28;20043;-70
2021/12/26 06:15:50;;;;;;;23.02;14.85;;;;;;;4.12;100.00;93973.34;5055452;28;20029;-70
2021/12/26 06:18:16;;;;;;;19.50;11.95;;;;;;;4.21;100.00;93951.81;5059108;28;20053;-70
2021/12/26 06:20:41;;;;;;;21.73;12.60;;;;;;;4.08;100.00;93962.03;5060312;28;20029;-70
2021/12/26 06:23:07;;;;;;;24.20;12.85;;;;;;;4.18;100.00;93970.78;5055062;28;20489;-70
2021/12/26 06:25:32;;;;;;;26.50;12.95;;;;;;;4.10;100.00;93948.88;5054092;28;20162;-70
2021/12/26 06:27:58;;;;;;;21.20;12.05;;;;;;;4.19;100.00;93934.66;5054260;28;20119;-70
2021/12/26 06:30:24;;;;;;;21.38;12.10;;;;;;;4.06;100.00;93985.91;5055629;28;20031;-70
2021/12/26 06:32:49;;;;;;;21.40;12.60;;;;;;;4.04;100.00;93948.03;5055038;28;20025;-70
2021/12/26 06:35:15;;;;;;;26.65;12.73;;;;;;;4.02;100.00;93958.50;5055311;28;20033;-70
2021/12/26 06:37:41;;;;;;;22.40;13.23;;;;;;;4.11;100.00;93961.13;5055495;28;20029;-69
2021/12/26 06:40:10;;;;;;;25.33;12.48;;;;;;;4.02;100.00;93945.81;5054897;28;20054;-69
2021/12/26 06:42:41;;;;;;;21.23;13.23;;;;;;;3.87;100.00;93956.50;5053900;28;20071;-69
2021/12/26 06:45:08;;;;;;;28.00;13.77;;;;;;;3.88;100.00;93955.28;5055327;28;20394;-69
2021/12/26 06:47:33;;;;;;;29.92;14.00;;;;;;;4.22;100.00;93982.09;5054752;28;20100;-70
2021/12/26 06:49:59;;;;;;;25.77;13.77;;;;;;;4.32;100.00;93999.66;5054750;28;20108;-70
2021/12/26 06:52:24;;;;;;;21.60;13.35;;;;;;;4.23;100.00;93965.53;5054988;28;20029;-69
2021/12/26 06:54:50;;;;;;;24.58;14.18;;;;;;;3.98;100.00;94015.06;5053715;28;20029;-70
2021/12/26 06:57:16;;;;;;;28.27;14.13;;;;;;;4.16;100.00;94016.91;5054621;28;20029;-70
2021/12/26 06:59:41;;;;;;;23.85;13.70;;;;;;;4.14;100.00;94029.31;5055012;28;20020;-70
2021/12/26 07:02:07;;;;;;;24.15;13.48;;;;;;;4.27;100.00;94031.75;5054514;28;20021;-70
2021/12/26 07:04:32;;;;;;;23.40;13.48;;;;;;;4.44;100.00;94032.13;5054569;28;20029;-70
2021/12/26 07:06:58;;;;;;;24.75;14.57;;;;;;;4.21;100.00;94032.41;5054757;28;20374;-70
2021/12/26 07:09:23;;;;;;;22.88;13.30;;;;;;;4.06;100.00;94007.41;5053453;28;20025;-70
2021/12/26 07:11:49;;;;;;;24.38;13.70;;;;;;;4.22;100.00;94015.06;5054608;28;20028;-70
2021/12/26 07:14:14;;;;;;;22.90;13.68;;;;;;;4.32;100.00;94044.56;5054343;28;20363;-70
2021/12/26 07:16:40;;;;;;;25.55;13.60;;;;;;;3.95;100.00;94017.91;5054888;28;20028;-70
2021/12/26 07:19:05;;;;;;;26.27;14.25;;;;;;;4.11;100.00;94027.53;5054600;28;20021;-71
2021/12/26 07:21:31;;;;;;;26.55;15.77;;;;;;;4.01;100.00;94037.59;5054375;28;20036;-70
2021/12/26 07:23:56;;;;;;;30.83;16.38;;;;;;;4.01;100.00;94027.56;5054341;28;20032;-70
2021/12/26 07:26:24;;;;;;;30.08;15.40;;;;;;;4.04;100.00;94025.94;5054151;28;20025;-71
2021/12/26 07:28:50;;;;;;;36.30;17.27;;;;;;;4.08;100.00;94026.50;5054157;28;20040;-70
2021/12/26 07:31:15;;;;;;;36.33;17.95;;;;;;;3.69;100.00;94023.69;5054075;28;20060;-70
2021/12/26 07:33:41;;;;;;;37.33;19.30;;;;;;;3.93;100.00;94022.97;5054620;28;20077;-70
2021/12/26 07:36:07;;;;;;;33.85;19.35;;;;;;;4.22;100.00;94030.44;5054120;28;20169;-70
2021/12/26 07:38:32;;;;;;;32.03;16.58;;;;;;;4.37;100.00;94027.81;5052887;28;20040;-70
2021/12/26 07:40:58;;;;;;;27.58;15.52;;;;;;;4.46;100.00;94011.66;5054026;28;20037;-70
2021/12/26 07:43:23;;;;;;;25.55;15.80;;;;;;;4.54;100.00;94023.53;5054228;28;20040;-70
2021/12/26 07:45:49;;;;;;;21.20;12.48;;;;;;;4.64;100.00;94020.78;5056939;28;20059;-70
2021/12/26 07:48:14;;;;;;;25.50;14.30;;;;;;;4.59;100.00;94030.22;5074220;28;20039;-70
2021/12/26 07:50:40;;;;;;;38.00;20.90;;;;;;;4.63;100.00;93998.53;5074764;28;20036;-70
2021/12/26 07:53:10;;;;;;;36.60;20.95;;;;;;;4.68;100.00;94032.13;5075363;28;20045;-70
2021/12/26 07:55:36;;;;;;;21.20;13.27;;;;;;;4.43;100.00;93964.22;5075873;28;20020;-70
2021/12/26 07:58:02;;;;;;;20.95;13.15;;;;;;;4.67;100.00;94001.06;5073945;28;20179;-71
2021/12/26 08:00:28;;;;;;;22.13;10.00;;;;;;;4.69;100.00;94009.38;5053518;28;20029;-70
2021/12/26 08:02:54;;;;;;;16.90;10.25;;;;;;;4.80;100.00;94006.94;5053697;28;20029;-70
2021/12/26 08:05:21;;;;;;;18.40;10.48;;;;;;;4.82;100.00;94007.19;5052398;28;20056;-70
2021/12/26 08:07:46;;;;;;;20.05;11.73;;;;;;;4.76;100.00;94011.75;5055844;28;20036;-69
2021/12/26 08:10:12;;;;;;;20.35;10.50;;;;;;;4.83;100.00;93989.13;5060885;28;20036;-70
2021/12/26 08:12:37;;;;;;;19.30;11.02;;;;;;;4.92;100.00;93991.72;5053275;28;20524;-70
2021/12/26 08:15:04;;;;;;;21.33;12.27;;;;;;;4.75;100.00;93994.13;5053353;28;20036;-70
2021/12/26 08:17:30;;;;;;;21.42;11.80;;;;;;;4.97;100.00;93971.53;5053043;28;20115;-71
2021/12/26 08:19:57;;;;;;;27.20;15.23;;;;;;;4.96;100.00;93981.53;5053175;28;20087;-70
2021/12/26 08:22:23;;;;;;;26.67;14.52;;;;;;;5.19;100.00;93960.41;5053142;28;20036;-70
2021/12/26 08:24:48;;;;;;;34.53;16.50;;;;;;;5.37;100.00;93983.66;5052262;28;20040;-70
2021/12/26 08:27:14;;;;;;;30.85;16.30;;;;;;;5.67;100.00;94003.25;5053288;28;20029;-70
2021/12/26 08:29:41;;;;;;;33.97;17.30;;;;;;;5.72;100.00;93989.09;5052818;28;20021;-70
2021/12/26 08:32:10;;;;;;;25.10;14.30;;;;;;;5.83;100.00;93999.31;5053180;28;20033;-70
2021/12/26 08:34:36;;;;;;;22.65;13.50;;;;;;;5.88;100.00;93979.78;5052947;28;20470;-70
2021/12/26 08:37:03;;;;;;;26.10;14.82;;;;;;;5.95;100.00;94015.66;5053148;28;20029;-70
2021/12/26 08:39:31;;;;;;;28.85;13.98;;;;;;;5.82;100.00;94005.91;5053006;28;20421;-70
2021/12/26 08:41:56;;;;;;;25.88;12.90;;;;;;;6.04;100.00;94008.22;5053210;28;20370;-70
2021/12/26 08:44:23;;;;;;;19.10;11.52;;;;;;;6.17;100.00;94007.88;5053114;28;20025;-70
2021/12/26 08:46:48;;;;;;;18.27;9.95;;;;;;;6.31;100.00;94019.09;5052832;28;20064;-70
2021/12/26 08:49:15;;;;;;;24.20;11.10;;;;;;;6.45;100.00;94015.59;5052747;28;20292;-70
2021/12/26 08:51:42;;;;;;;23.50;11.50;;;;;;;6.48;100.00;94025.44;5052718;28;20024;-70
2021/12/26 08:54:08;;;;;;;22.02;10.63;;;;;;;6.42;100.00;93992.28;5052859;28;20059;-70
2021/12/26 08:56:33;;;;;;;23.73;11.40;;;;;;;6.52;100.00;94011.78;5052687;28;20463;-70
2021/12/26 08:58:59;;;;;;;16.35;10.20;;;;;;;6.40;100.00;94005.50;5052840;28;20021;-70
2021/12/26 09:01:25;;;;;;;17.95;10.48;;;;;;;6.17;100.00;93994.41;5052923;28;20028;-70
2021/12/26 09:03:50;;;;;;;21.30;9.88;;;;;;;6.30;100.00;93998.72;5052593;28;20485;-70
2021/12/26 09:06:16;;;;;;;14.65;8.77;;;;;;;6.78;100.00;94006.44;5055259;28;20055;-71
2021/12/26 09:08:42;;;;;;;26.38;13.45;;;;;;;6.75;100.00;93991.19;5057146;28;20024;-71
2021/12/26 09:11:07;;;;;;;19.48;10.38;;;;;;;6.83;100.00;94003.06;5056836;28;20041;-70
2021/12/26 09:13:33;;;;;;;20.08;10.65;;;;;;;7.00;100.00;93978.22;5056626;28;20032;-71
2021/12/26 09:15:59;;;;;;;14.23;8.43;;;;;;;7.02;100.00;93983.84;5056616;28;20412;-72
2021/12/26 09:18:25;;;;;;;31.30;12.68;;;;;;;6.72;100.00;93982.09;5056449;28;20053;-72
2021/12/26 09:20:51;;;;;;;27.58;14.00;;;;;;;7.07;100.00;93977.78;5055520;28;20017;-72
2021/12/26 09:23:16;;;;;;;33.67;17.15;;;;;;;7.06;100.00;93971.66;5056590;28;20029;-73
2021/12/26 09:25:42;;;;;;;31.83;16.45;;;;;;;7.16;100.00;93985.72;5056720;28;20032;-71
2021/12/26 09:28:09;;;;;;;35.75;17.48;;;;;;;7.13;100.00;93985.94;5056321;28;20040;-71
2021/12/26 09:30:35;;;;;;;41.13;18.15;;;;;;;7.44;100.00;93982.50;5056083;28;20067;-70
2021/12/26 09:33:00;;;;;;;29.10;15.27;;;;;;;7.44;100.00;93979.81;5055872;28;20021;-72
2021/12/26 09:35:26;;;;;;;21.98;12.05;;;;;;;7.42;99.32;93990.38;5056200;28;20025;-70
2021/12/26 09:37:51;;;;;;;28.60;13.05;;;;;;;7.56;99.27;93997.59;5054861;28;20025;-70
2021/12/26 09:40:17;;;;;;;20.40;11.73;;;;;;;7.69;95.99;94007.25;5055721;28;20057;-71
2021/12/26 09:42:44;;;;;;;17.45;10.15;;;;;;;7.71;92.32;94002.88;5055890;28;20055;-71
2021/12/26 09:45:10;;;;;;;26.70;14.13;;;;;;;7.58;96.42;94016.00;5056237;28;20035;-71
2021/12/26 09:47:38;;;;;;;25.30;11.93;;;;;;;7.35;96.52;94004.28;5055983;28;20053;-72
2021/12/26 09:50:09;;;;;;;18.60;11.95;;;;;;;7.74;94.39;94001.16;5055789;28;20052;-71
2021/12/26 09:52:35;;;;;;;19.47;9.60;;;;;;;7.83;89.06;94011.78;5056180;28;20021;-71
2021/12/26 09:55:01;;;;;;;14.52;7.57;;;;;;;7.86;84.98;94000.03;5054599;28;20021;-71
2021/12/26 09:57:27;;;;;;;19.23;7.80;;;;;;;7.85;87.04;94006.63;5062776;28;20049;-71
2021/12/26 09:59:53;;;;;;;15.30;6.93;;;;;;;7.53;85.44;94006.66;5057365;28;20108;-71
2021/12/26 10:02:19;;;;;;;16.77;6.95;;;;;;;7.41;87.28;94000.41;5055655;28;20056;-71
2021/12/26 10:04:50;;;;;;;11.50;6.85;;;;;;;7.58;85.79;93997.88;5055667;28;20025;-71
2021/12/26 10:07:18;;;;;;;15.07;6.27;;;;;;;7.79;86.59;94005.88;5055818;28;20025;-71
2021/12/26 10:09:49;;;;;;;12.45;6.18;;;;;;;7.85;83.96;93992.41;5055480;28;20079;-71
2021/12/26 10:12:17;;;;;;;13.18;6.05;;;;;;;8.02;81.96;94001.38;5055695;28;20454;-71
2021/12/26 10:14:46;;;;;;;11.90;6.82;;;;;;;7.86;84.43;94005.44;5055465;28;20051;-71
2021/12/26 10:17:15;;;;;;;18.33;6.47;;;;;;;8.05;82.46;93999.66;5055135;28;20049;-71
2021/12/26 10:19:44;;;;;;;11.77;7.25;;;;;;;7.99;83.32;94007.72;5055165;28;20025;-71
2021/12/26 10:22:11;;;;;;;13.77;6.95;;;;;;;7.89;86.61;94001.75;5055313;28;20027;-71
2021/12/26 10:24:43;;;;;;;11.38;6.53;;;;;;;8.27;84.16;94010.59;5055333;28;20021;-71
2021/12/26 10:27:15;;;;;;;14.50;6.70;;;;;;;8.53;81.22;94009.75;5055365;28;20104;-71
2021/12/26 10:29:52;;;;;;;11.70;6.03;;;;;;;9.04;76.69;94012.66;5055190;28;20032;-71
2021/12/26 10:32:22;;;;;;;11.90;5.40;;;;;;;9.03;75.53;94023.97;5055273;28;20021;-71
2021/12/26 10:34:51;;;;;;;11.13;5.32;;;;;;;9.16;75.59;94013.41;5055564;28;20013;-71
2021/12/26 10:37:21;;;;;;;13.07;6.28;;;;;;;9.10;76.12;94009.97;5055028;28;20031;-71
2021/12/26 10:39:51;;;;;;;8.70;5.43;;;;;;;9.38;73.56;94001.91;5055039;28;20087;-71
2021/12/26 10:42:21;;;;;;;15.55;7.22;;;;;;;8.46;81.41;94004.81;5054850;28;20023;-71
2021/12/26 10:44:57;;;;;;;12.77;6.97;;;;;;;8.61;78.87;94005.38;5055402;28;20104;-71
2021/12/26 10:47:29;;;;;;;13.57;7.47;;;;;;;8.50;79.75;93997.22;5055169;28;20021;-71
2021/12/26 10:50:13;;;;;;;11.88;6.70;;;;;;;8.42;80.34;93996.16;5053748;28;20107;-71
2021/12/26 10:52:40;;;;;;;13.02;7.68;;;;;;;8.94;78.60;93998.63;5055174;28;20029;-71
2021/12/26 10:55:09;;;;;;;13.50;7.03;;;;;;;9.46;73.41;93999.44;5054699;28;20091;-71
2021/12/26 10:57:37;;;;;;;14.10;6.93;;;;;;;9.55;72.98;93999.19;5053964;28;20406;-72
2021/12/26 11:00:14;;;;;;;15.73;7.82;;;;;;;9.41;73.06;93995.50;5054444;28;20021;-72
2021/12/26 11:02:53;;;;;;;12.05;6.63;;;;;;;9.73;70.97;93991.81;5054528;28;20044;-72
2021/12/26 11:05:31;;;;;;;15.40;6.78;;;;;;;9.33;71.77;93994.50;5054387;28;20033;-72
2021/12/26 11:07:58;;;;;;;13.90;6.05;;;;;;;9.17;73.28;94019.59;5054742;28;20355;-71
2021/12/26 11:10:36;;;;;;;15.65;7.00;;;;;;;9.38;71.57;94022.81;5054729;28;20031;-71
2021/12/26 11:13:04;;;;;;;13.90;6.93;;;;;;;9.74;70.96;94015.69;5054650;28;20040;-71
2021/12/26 11:15:33;;;;;;;13.50;6.82;;;;;;;10.19;69.98;94025.78;5054203;28;20025;-72
2021/12/26 11:18:01;;;;;;;15.40;7.03;;;;;;;10.40;68.05;94012.69;5053910;28;20067;-72
2021/12/26 11:20:46;;;;;;;13.40;7.30;;;;;;;10.10;68.42;94017.88;5054061;28;20025;-72
2021/12/26 11:23:18;;;;;;;12.70;6.20;;;;;;;10.26;68.26;94010.97;5053142;28;20472;-72
2021/12/26 11:25:52;;;;;;;13.20;6.32;;;;;;;9.81;67.94;94011.75;5053138;28;20112;-72
2021/12/26 11:28:26;;;;;;;15.98;6.85;;;;;;;9.80;68.84;94015.69;5054313;28;20370;-72